Anniston, Missouri
Current Conditions -  °F | °C
As of 11:55 PM on Friday 28 Nov 2014 (Local Time) from KCIR Reporting Station
Clear Clear  
Wind Chill: 39°   Ceiling: Unl
Heat Index: 43°   Visibility: 10mi
Dew Point: 30°   Wind: 7mph
Humidity: 61%   Direction: 170°S
Pressure: 30.03"   Gusts: NA
Location:  36.83°N, 89.33°W
Report Text: KCIR 290555Z AUTO 17006KT 10SM CLR 06/M01 A3003 RMK AO2 T00611010 10080 20051 401051016
Loading
Personal Weather Stations






























Interactive Weather Map New forecast layout! Learn more

10-Day Weather Forecast

Advertisements
Track Severe Weather on mobile